Bedford Park, Illinois
Current Conditions -  °F | °C
As of 4:13 AM on Tuesday 27 Jan 2015 (Local Time) from KMDW Reporting Station
Haze Haze  
Wind Chill: -2°   Ceiling: 800
Heat Index: -2°   Visibility: 2.5mi
Dew Point: -4°   Wind: 3mph
Humidity: 85%   Direction: 50°NE
Pressure: 29.99"   Gusts: NA
Location:  41.76°N, 87.8°W
Report Text: KMDW 271013Z 05003KT 2 1/2SM BR OVC008 M02/M04 A2999 RMK AO2 T10171039
Loading
Personal Weather Stations






























Interactive Weather Map New forecast layout! Learn more

10-Day Weather Forecast

Advertisements
Track Severe Weather on mobile